Time;durP1;ratioP1;P1;durP2;ratioP2;P2;SDS_P1;SDS_P2;PMS_P1;PMS_P2;Temp;Humidity;BMP_temperature;BMP_pressure;BME280_temperature;BME280_humidity;BME280_pressure;Samples;Min_cycle;Max_cycle;Signal;HPM_P1;HPM_P2
2021/06/09 00:00:32;;;;;;;13.07;7.50;;;436.10;2355.20;;;;;;5075976;28;20385;-88
2021/06/09 00:02:58;;;;;;;16.63;7.95;;;436.10;2355.20;;;;;;5075952;28;20025;-89
2021/06/09 00:05:27;;;;;;;13.02;7.32;;;436.00;2355.20;;;;;;5075947;28;20029;-88
2021/06/09 00:07:53;;;;;;;9.63;7.30;;;435.90;2355.20;;;;;;5076148;28;20027;-87
2021/06/09 00:10:20;;;;;;;8.82;6.80;;;436.00;2355.20;;;;;;5075968;28;20029;-87
2021/06/09 00:12:46;;;;;;;12.38;6.53;;;436.10;2355.20;;;;;;5076007;28;20027;-89
2021/06/09 00:15:15;;;;;;;12.07;7.18;;;460.80;2380.80;;;;;;5075644;28;20050;-88
2021/06/09 00:17:41;;;;;;;15.60;7.32;;;460.80;2380.80;;;;;;5075834;28;20021;-87
2021/06/09 00:20:11;;;;;;;8.13;6.35;;;460.80;2380.80;;;;;;5075818;28;20028;-87
2021/06/09 00:22:38;;;;;;;12.40;7.95;;;460.80;2380.80;;;;;;5076066;28;20024;-89
2021/06/09 00:25:14;;;;;;;8.90;6.65;;;461.00;2380.80;;;;;;5075803;28;20497;-88
2021/06/09 00:27:41;;;;;;;11.50;7.10;;;436.00;2355.20;;;;;;5075803;28;20024;-89
2021/06/09 00:30:08;;;;;;;12.48;7.15;;;435.90;2355.20;;;;;;5075379;28;20020;-88
2021/06/09 00:32:35;;;;;;;10.57;7.60;;;435.80;2355.20;;;;;;5075652;28;20031;-88
2021/06/09 00:35:01;;;;;;;9.63;6.88;;;435.80;2355.20;;;;;;5075561;28;20063;-89
2021/06/09 00:37:27;;;;;;;9.40;6.30;;;435.80;2355.20;;;;;;5075403;28;20078;-88
2021/06/09 00:39:54;;;;;;;7.88;6.10;;;435.70;2355.20;;;;;;5075536;28;20031;-88
2021/06/09 00:42:23;;;;;;;10.60;6.57;;;435.80;2355.20;;;;;;5075469;28;20119;-88
2021/06/09 00:44:49;;;;;;;10.75;6.50;;;435.60;2355.20;;;;;;5075112;28;20036;-89
2021/06/09 00:47:23;;;;;;;10.20;6.15;;;410.00;2355.20;;;;;;5075385;28;20017;-88
2021/06/09 00:49:50;;;;;;;10.55;6.43;;;435.50;2355.20;;;;;;5075321;28;20499;-88
2021/06/09 00:52:22;;;;;;;9.50;6.78;;;435.50;2355.20;;;;;;5074727;28;20059;-89
2021/06/09 00:54:48;;;;;;;11.43;6.70;;;435.20;2355.20;;;;;;5075093;28;20079;-90
2021/06/09 00:57:15;;;;;;;8.13;6.07;;;435.20;2355.20;;;;;;5075005;28;20396;-90
2021/06/09 00:59:41;;;;;;;8.60;5.72;;;435.50;2355.20;;;;;;5075198;28;20088;-89
2021/06/09 01:02:07;;;;;;;11.13;5.97;;;435.20;2355.20;;;;;;5074782;28;20029;-88
2021/06/09 01:04:34;;;;;;;10.80;6.13;;;435.20;2355.20;;;;;;5074727;28;20021;-88
2021/06/09 01:07:02;;;;;;;10.82;7.35;;;435.30;2355.20;;;;;;5074635;28;20044;-89
2021/06/09 01:09:28;;;;;;;10.80;5.90;;;435.20;2355.20;;;;;;5074726;28;20021;-89
2021/06/09 01:11:55;;;;;;;10.05;6.95;;;410.40;2355.20;;;;;;5074923;28;20028;-89
2021/06/09 01:14:22;;;;;;;10.50;5.95;;;410.30;2355.20;;;;;;5074756;28;20547;-89
2021/06/09 01:16:50;;;;;;;11.38;6.28;;;410.40;2355.20;;;;;;5074664;28;20024;-89
2021/06/09 01:19:17;;;;;;;9.90;6.22;;;435.20;2355.20;;;;;;5075127;28;20029;-89
2021/06/09 01:21:44;;;;;;;9.88;6.65;;;410.30;2355.20;;;;;;5074557;28;20032;-89
2021/06/09 01:24:11;;;;;;;13.85;8.00;;;410.20;2355.20;;;;;;5074681;28;20024;-88
2021/06/09 01:26:38;;;;;;;11.98;6.90;;;435.20;2355.20;;;;;;5074410;28;20040;-89
2021/06/09 01:29:05;;;;;;;13.75;7.50;;;410.30;2355.20;;;;;;5074826;28;20107;-89
2021/06/09 01:31:32;;;;;;;13.52;7.28;;;410.40;2355.20;;;;;;5074320;28;20028;-89
2021/06/09 01:34:05;;;;;;;14.55;8.20;;;410.30;2355.20;;;;;;5074164;28;20021;-89
2021/06/09 01:36:39;;;;;;;12.52;8.07;;;410.30;2355.20;;;;;;5074331;28;20119;-88
2021/06/09 01:39:11;;;;;;;14.40;8.55;;;410.30;2355.20;;;;;;5074371;28;20021;-90
2021/06/09 01:41:42;;;;;;;12.35;7.57;;;410.20;2355.20;;;;;;5074186;28;20124;-89
2021/06/09 01:44:09;;;;;;;12.67;7.10;;;410.10;2355.20;;;;;;5074130;28;20029;-90
2021/06/09 01:46:35;;;;;;;9.10;6.53;;;410.10;2355.20;;;;;;5074110;28;20111;-88
2021/06/09 01:49:02;;;;;;;13.88;8.02;;;410.20;2355.20;;;;;;5073889;28;20071;-89
2021/06/09 01:51:29;;;;;;;9.70;7.03;;;410.20;2355.20;;;;;;5074039;28;20024;-89
2021/06/09 01:53:55;;;;;;;11.02;7.20;;;410.00;2355.20;;;;;;5073937;28;20031;-89
2021/06/09 01:56:21;;;;;;;13.52;8.13;;;410.30;2355.20;;;;;;5073759;28;20024;-89
2021/06/09 01:58:47;;;;;;;11.82;7.65;;;410.30;2355.20;;;;;;5073905;28;20369;-89
2021/06/09 02:01:14;;;;;;;12.63;7.50;;;410.50;2355.20;;;;;;5073882;28;20380;-89
2021/06/09 02:03:41;;;;;;;14.85;7.63;;;410.20;2355.20;;;;;;5072972;28;20393;-89
2021/06/09 02:06:08;;;;;;;9.18;6.80;;;410.20;2355.20;;;;;;5073776;28;20119;-89
2021/06/09 02:08:34;;;;;;;11.30;7.50;;;409.90;2355.20;;;;;;5073908;28;20031;-90
2021/06/09 02:11:01;;;;;;;12.45;7.55;;;409.90;2355.20;;;;;;5073928;28;20066;-90
2021/06/09 02:13:27;;;;;;;14.88;7.07;;;409.90;2355.20;;;;;;5073605;28;20044;-90
2021/06/09 02:15:56;;;;;;;11.82;7.30;;;410.10;2355.20;;;;;;5074213;28;20025;-90
2021/06/09 02:18:24;;;;;;;12.50;7.50;;;410.20;2355.20;;;;;;5073756;28;20024;-91
2021/06/09 02:20:54;;;;;;;12.65;7.85;;;410.00;2355.20;;;;;;5073663;28;20398;-90
2021/06/09 02:23:22;;;;;;;12.15;7.32;;;410.00;2355.20;;;;;;5073500;28;20028;-91
2021/06/09 02:25:51;;;;;;;10.82;8.25;;;410.00;2355.20;;;;;;5073587;28;20032;-90
2021/06/09 02:28:19;;;;;;;11.18;7.38;;;410.00;2355.20;;;;;;5073537;28;20067;-90
2021/06/09 02:30:46;;;;;;;14.82;8.48;;;410.10;2355.20;;;;;;5073395;28;20024;-90
2021/06/09 02:33:14;;;;;;;12.88;6.95;;;410.00;2355.20;;;;;;5073661;28;20031;-89
2021/06/09 02:35:43;;;;;;;13.57;7.28;;;410.10;2355.20;;;;;;5073652;28;20032;-89
2021/06/09 02:38:10;;;;;;;13.02;7.50;;;410.10;2355.20;;;;;;5073433;28;20370;-90
2021/06/09 02:40:38;;;;;;;9.93;7.07;;;410.00;2355.20;;;;;;5073713;28;20036;-90
2021/06/09 02:43:05;;;;;;;13.45;7.40;;;410.00;2355.20;;;;;;5073386;28;20024;-89
2021/06/09 02:45:32;;;;;;;14.77;8.93;;;410.00;2355.20;;;;;;5073520;28;20035;-90
2021/06/09 02:48:10;;;;;;;10.18;7.20;;;410.00;2355.20;;;;;;5073464;28;20150;-90
2021/06/09 02:50:38;;;;;;;15.90;8.88;;;410.00;2355.20;;;;;;5073624;28;20107;-90
2021/06/09 02:53:19;;;;;;;11.90;8.25;;;409.90;2355.20;;;;;;5073432;28;20470;-91
2021/06/09 02:56:23;;;;;;;11.48;7.30;;;409.70;2355.20;;;;;;5073355;28;20134;-89
2021/06/09 02:58:58;;;;;;;14.30;8.10;;;409.90;2355.20;;;;;;5073176;28;20481;-89
2021/06/09 03:01:59;;;;;;;15.10;7.65;;;410.00;2355.20;;;;;;5080111;28;20033;-90
2021/06/09 03:04:38;;;;;;;12.35;8.32;;;409.90;2355.20;;;;;;5080140;28;20020;-91
2021/06/09 03:07:22;;;;;;;11.02;7.95;;;409.90;2355.20;;;;;;5073222;28;20020;-90
2021/06/09 03:10:02;;;;;;;16.17;9.50;;;409.90;2355.20;;;;;;5073640;28;20024;-89
2021/06/09 03:12:49;;;;;;;15.70;9.48;;;409.90;2355.20;;;;;;5073336;28;20474;-91
2021/06/09 03:15:52;;;;;;;17.58;10.00;;;409.90;2355.20;;;;;;5074959;28;20056;-91
2021/06/09 03:18:26;;;;;;;17.65;8.98;;;409.90;2355.20;;;;;;5077124;28;20613;-91
2021/06/09 03:21:14;;;;;;;15.98;7.93;;;409.90;2355.20;;;;;;5076806;28;20028;-91
2021/06/09 03:23:58;;;;;;;12.23;7.55;;;409.90;2355.20;;;;;;5076857;28;20043;-91
2021/06/09 03:26:42;;;;;;;12.10;7.38;;;409.90;2355.20;;;;;;5076382;28;20093;-92
2021/06/09 03:29:18;;;;;;;11.65;8.20;;;409.90;2355.20;;;;;;5076744;28;20017;-91
2021/06/09 03:32:09;;;;;;;11.20;7.95;;;409.90;2355.20;;;;;;5076732;28;20024;-90
2021/06/09 03:34:59;;;;;;;9.57;6.82;;;409.90;2355.20;;;;;;5065697;28;20025;-91
2021/06/09 03:37:28;;;;;;;10.13;6.43;;;409.90;2355.20;;;;;;5076823;28;20112;-91
2021/06/09 03:39:57;;;;;;;9.90;7.20;;;409.90;2355.20;;;;;;5076511;28;20048;-91
2021/06/09 03:42:28;;;;;;;14.30;6.88;;;409.90;2355.20;;;;;;5076044;28;20021;-91
2021/06/09 03:44:57;;;;;;;11.63;7.35;;;409.70;2355.20;;;;;;5076419;28;20055;-92
2021/06/09 03:47:25;;;;;;;13.20;7.60;;;409.60;2355.20;;;;;;5076302;28;20031;-90
2021/06/09 03:49:52;;;;;;;11.27;6.75;;;409.70;2355.20;;;;;;5076415;28;20027;-91
2021/06/09 03:52:19;;;;;;;11.43;7.10;;;409.70;2355.20;;;;;;5076442;28;20028;-91
2021/06/09 03:54:49;;;;;;;12.05;7.63;;;410.00;2355.20;;;;;;5076362;28;20389;-89
2021/06/09 03:57:16;;;;;;;12.98;7.80;;;409.70;2355.20;;;;;;5076341;28;20052;-92
2021/06/09 03:59:46;;;;;;;10.43;7.13;;;409.90;2355.20;;;;;;5076368;28;20044;-90
2021/06/09 04:02:13;;;;;;;14.13;7.50;;;409.90;2355.20;;;;;;5076216;28;20043;-90
2021/06/09 04:04:40;;;;;;;10.38;7.40;;;409.90;2355.20;;;;;;5076211;28;20032;-92
2021/06/09 04:07:08;;;;;;;14.57;7.65;;;409.80;2355.20;;;;;;5075921;28;20031;-90
2021/06/09 04:09:35;;;;;;;12.18;7.70;;;409.70;2355.20;;;;;;5076086;28;20017;-91
2021/06/09 04:12:04;;;;;;;9.60;6.07;;;409.70;2355.20;;;;;;5075885;28;20032;-89
2021/06/09 04:14:40;;;;;;;9.85;6.38;;;409.90;2355.20;;;;;;5075314;28;20055;-89
2021/06/09 04:17:07;;;;;;;12.95;6.80;;;409.90;2355.20;;;;;;5076116;28;20120;-89
2021/06/09 04:19:35;;;;;;;14.35;6.93;;;409.90;2355.20;;;;;;5075714;28;20021;-90
2021/06/09 04:22:05;;;;;;;9.38;6.55;;;409.90;2355.20;;;;;;5075660;28;20024;-90
2021/06/09 04:24:38;;;;;;;8.95;6.95;;;409.90;2355.20;;;;;;5075800;28;20032;-88
2021/06/09 04:27:21;;;;;;;12.48;6.63;;;409.90;2355.20;;;;;;5074739;28;20036;-89
2021/06/09 04:29:49;;;;;;;11.15;7.32;;;410.00;2355.20;;;;;;5075819;28;20024;-90
2021/06/09 04:32:15;;;;;;;14.63;7.78;;;409.90;2355.20;;;;;;5075666;28;20105;-91
2021/06/09 04:34:50;;;;;;;18.27;7.38;;;409.80;2355.20;;;;;;5075299;28;20539;-89
2021/06/09 04:37:19;;;;;;;9.68;6.35;;;409.70;2355.20;;;;;;5075620;28;20545;-91
2021/06/09 04:39:46;;;;;;;13.25;6.82;;;409.60;2355.20;;;;;;5075320;28;20043;-90
2021/06/09 04:42:13;;;;;;;12.82;7.47;;;409.60;2355.20;;;;;;5075431;28;20032;-90
2021/06/09 04:44:40;;;;;;;13.27;6.88;;;409.60;2355.20;;;;;;5075399;28;20031;-90
2021/06/09 04:47:07;;;;;;;9.30;6.80;;;409.70;2355.20;;;;;;5075178;28;20462;-91
2021/06/09 04:49:37;;;;;;;9.32;6.95;;;409.70;2355.20;;;;;;5075728;28;20031;-90
2021/06/09 04:52:04;;;;;;;10.75;7.60;;;409.70;2355.20;;;;;;5075421;28;20024;-90
2021/06/09 04:54:30;;;;;;;10.68;7.03;;;409.70;2355.20;;;;;;5075386;28;20016;-90
2021/06/09 04:56:57;;;;;;;11.27;7.75;;;410.50;2355.20;;;;;;5075123;28;20059;-90
2021/06/09 04:59:23;;;;;;;12.88;7.30;;;409.70;2355.20;;;;;;5075096;28;20032;-89
2021/06/09 05:01:50;;;;;;;11.90;7.15;;;410.00;2355.20;;;;;;5074830;28;20028;-90
2021/06/09 05:04:17;;;;;;;14.48;7.15;;;409.90;2355.20;;;;;;5074989;28;20020;-90
2021/06/09 05:06:43;;;;;;;13.10;6.85;;;410.20;2355.20;;;;;;5074684;28;20037;-91
2021/06/09 05:09:10;;;;;;;10.40;6.47;;;410.30;2355.20;;;;;;5075121;28;20043;-90
2021/06/09 05:11:53;;;;;;;14.93;7.18;;;410.40;2355.20;;;;;;5074706;28;20466;-92
2021/06/09 05:14:36;;;;;;;12.43;6.50;;;410.50;2355.20;;;;;;5074648;28;20485;-91
2021/06/09 05:17:05;;;;;;;11.10;6.78;;;410.40;2355.20;;;;;;5074732;28;20032;-91
2021/06/09 05:19:33;;;;;;;13.60;6.80;;;435.30;2355.20;;;;;;5074636;28;20081;-91
2021/06/09 05:22:08;;;;;;;9.48;6.72;;;435.30;2355.20;;;;;;5074601;28;20112;-90
2021/06/09 05:24:36;;;;;;;10.10;6.95;;;435.40;2355.20;;;;;;5074497;28;20028;-91
2021/06/09 05:27:04;;;;;;;13.23;7.88;;;435.50;2355.20;;;;;;5074531;28;20028;-90
2021/06/09 05:29:31;;;;;;;13.55;7.00;;;435.30;2355.20;;;;;;5074663;28;20024;-91
2021/06/09 05:31:59;;;;;;;15.15;7.45;;;435.50;2355.20;;;;;;5074432;28;20031;-90
2021/06/09 05:34:26;;;;;;;12.10;6.63;;;435.50;2355.20;;;;;;5074372;28;20016;-90
2021/06/09 05:36:52;;;;;;;15.73;7.22;;;435.30;2355.20;;;;;;5074367;28;20078;-91
2021/06/09 05:39:19;;;;;;;17.10;7.30;;;435.30;2355.20;;;;;;5074183;28;20025;-90
2021/06/09 05:41:46;;;;;;;16.63;7.72;;;435.60;2355.20;;;;;;5074271;28;20111;-90
2021/06/09 05:44:17;;;;;;;10.18;7.35;;;461.00;2380.80;;;;;;5074305;28;20112;-89
2021/06/09 05:46:44;;;;;;;12.15;7.00;;;435.60;2355.20;;;;;;5074296;28;20389;-89
2021/06/09 05:49:24;;;;;;;13.93;7.85;;;435.80;2355.20;;;;;;5074187;28;20024;-90
2021/06/09 05:51:52;;;;;;;10.13;7.00;;;435.80;2355.20;;;;;;5074370;28;20042;-89
2021/06/09 05:54:19;;;;;;;9.55;6.85;;;435.90;2355.20;;;;;;5074160;28;20047;-91
2021/06/09 05:56:46;;;;;;;18.88;7.40;;;436.00;2355.20;;;;;;5074142;28;20028;-91
2021/06/09 05:59:16;;;;;;;12.35;7.00;;;460.80;2380.80;;;;;;5074411;28;20036;-89
2021/06/09 06:01:43;;;;;;;10.43;6.65;;;435.60;2355.20;;;;;;5074027;28;20020;-89
2021/06/09 06:04:10;;;;;;;16.67;7.65;;;461.10;2380.80;;;;;;5073771;28;20478;-89
2021/06/09 06:06:37;;;;;;;10.02;7.00;;;461.10;2380.80;;;;;;5073532;28;20033;-90
2021/06/09 06:09:34;;;;;;;11.48;7.32;;;461.30;2380.80;;;;;;5073870;28;20021;-91
2021/06/09 06:12:04;;;;;;;17.38;7.22;;;461.40;2380.80;;;;;;5073650;28;20020;-91
2021/06/09 06:14:33;;;;;;;14.13;7.40;;;461.50;2380.80;;;;;;5073458;28;20050;-92
2021/06/09 06:17:00;;;;;;;15.95;8.13;;;461.60;2380.80;;;;;;5056568;28;20405;-90
2021/06/09 06:19:36;;;;;;;9.23;6.40;;;461.60;2380.80;;;;;;5073569;28;20512;-91
2021/06/09 06:22:12;;;;;;;13.75;8.35;;;486.40;2380.80;;;;;;5073602;28;20078;-92
2021/06/09 06:24:46;;;;;;;13.48;7.32;;;487.30;2380.80;;;;;;5074304;28;20031;-90
2021/06/09 06:27:14;;;;;;;14.00;9.90;;;461.70;2380.80;;;;;;5073716;28;20025;-90
2021/06/09 06:29:53;;;;;;;15.80;8.15;;;461.70;2380.80;;;;;;5073665;28;20116;-89
2021/06/09 06:32:24;;;;;;;15.18;9.18;;;486.40;2380.80;;;;;;5073584;28;20036;-90
2021/06/09 06:34:53;;;;;;;15.95;10.15;;;486.50;2380.80;;;;;;5073770;28;20031;-87
2021/06/09 06:37:21;;;;;;;17.15;11.02;;;486.50;2380.80;;;;;;5073531;28;20021;-88
2021/06/09 06:40:04;;;;;;;17.95;10.77;;;486.50;2380.80;;;;;;5073569;28;20074;-90
2021/06/09 06:42:30;;;;;;;17.73;8.85;;;486.60;2380.80;;;;;;5073205;28;20021;-86
2021/06/09 06:45:00;;;;;;;12.40;7.57;;;486.60;2380.80;;;;;;5073334;28;20036;-92
2021/06/09 06:47:30;;;;;;;14.65;9.13;;;486.70;2380.80;;;;;;5073264;28;20107;-86
2021/06/09 06:49:58;;;;;;;18.00;9.68;;;486.70;2380.80;;;;;;5074898;28;20138;-87
2021/06/09 06:52:30;;;;;;;16.08;10.93;;;486.70;2380.80;;;;;;5077403;28;20031;-87
2021/06/09 06:55:00;;;;;;;15.00;9.63;;;486.80;2380.80;;;;;;5077306;28;20108;-85
2021/06/09 06:57:30;;;;;;;12.98;8.48;;;486.80;2380.80;;;;;;5077618;28;20078;-86
2021/06/09 07:00:00;;;;;;;12.00;8.48;;;487.00;2380.80;;;;;;5077064;28;20017;-87
2021/06/09 07:02:30;;;;;;;11.70;7.60;;;487.20;2380.80;;;;;;5077087;28;20070;-87
2021/06/09 07:04:56;;;;;;;15.18;9.43;;;512.20;2380.80;;;;;;5077195;28;20437;-84
2021/06/09 07:07:23;;;;;;;17.27;7.75;;;512.40;2380.80;;;;;;5076942;28;20055;-84
2021/06/09 07:09:49;;;;;;;14.63;11.13;;;512.70;2380.80;;;;;;5076511;28;20016;-83
2021/06/09 07:12:15;;;;;;;22.63;18.23;;;512.70;2380.80;;;;;;5076380;28;20021;-82
2021/06/09 07:14:42;;;;;;;16.67;12.52;;;537.60;2406.40;;;;;;5076293;28;20036;-86
2021/06/09 07:17:11;;;;;;;16.65;8.52;;;537.60;2406.40;;;;;;5076143;28;20032;-86
2021/06/09 07:19:38;;;;;;;19.20;14.27;;;538.00;2406.40;;;;;;5076427;28;20139;-83
2021/06/09 07:22:07;;;;;;;13.85;8.70;;;538.10;2406.40;;;;;;5076186;28;20025;-85
2021/06/09 07:24:33;;;;;;;13.10;8.00;;;538.40;2406.40;;;;;;5076623;28;20051;-83
2021/06/09 07:27:00;;;;;;;15.55;10.48;;;538.50;2406.40;;;;;;5076548;28;20477;-85
2021/06/09 07:29:38;;;;;;;14.27;8.15;;;563.30;2432.00;;;;;;5079581;28;20025;-87
2021/06/09 07:32:06;;;;;;;8.18;6.18;;;563.50;2432.00;;;;;;5076851;28;20378;-87
2021/06/09 07:34:33;;;;;;;13.73;6.55;;;563.60;2432.00;;;;;;5076379;28;20432;-87
2021/06/09 07:37:02;;;;;;;15.32;6.75;;;563.80;2432.00;;;;;;5076559;28;20039;-86
2021/06/09 07:39:36;;;;;;;12.70;7.82;;;563.90;2432.00;;;;;;5076598;28;20062;-85
2021/06/09 07:42:09;;;;;;;11.35;5.88;;;564.00;2432.00;;;;;;5077814;28;20492;-84
2021/06/09 07:44:40;;;;;;;6.78;4.55;;;588.80;2432.00;;;;;;5076244;28;20035;-85
2021/06/09 07:47:12;;;;;;;10.18;5.28;;;588.80;2432.00;;;;;;5075969;28;20024;-89
2021/06/09 07:49:39;;;;;;;7.35;4.93;;;589.00;2432.00;;;;;;5082709;28;20016;-85
2021/06/09 07:52:07;;;;;;;8.23;5.97;;;589.20;2432.00;;;;;;5082819;28;20025;-85
2021/06/09 07:54:35;;;;;;;12.15;7.88;;;589.10;2432.00;;;;;;5076544;28;20024;-81
2021/06/09 07:57:01;;;;;;;7.93;5.38;;;589.30;2432.00;;;;;;5076588;28;20059;-83
2021/06/09 07:59:28;;;;;;;7.25;5.13;;;589.30;2432.00;;;;;;5075062;28;20029;-82
2021/06/09 08:01:54;;;;;;;9.23;5.30;;;589.50;2432.00;;;;;;5073829;28;20032;-81
2021/06/09 08:04:21;;;;;;;11.48;5.60;;;589.60;2432.00;;;;;;5074978;28;20193;-82
2021/06/09 08:06:48;;;;;;;9.00;4.75;;;614.40;2432.00;;;;;;5075138;28;20058;-81
2021/06/09 08:09:15;;;;;;;9.52;5.30;;;614.50;2432.00;;;;;;5074912;28;20024;-81
2021/06/09 08:11:42;;;;;;;9.40;5.22;;;614.50;2432.00;;;;;;5074880;28;20028;-84
2021/06/09 08:14:08;;;;;;;9.57;4.60;;;614.60;2432.00;;;;;;5074905;28;20052;-82
2021/06/09 08:16:35;;;;;;;10.95;5.28;;;614.70;2432.00;;;;;;5075106;28;20024;-83
2021/06/09 08:19:05;;;;;;;11.48;4.82;;;614.90;2432.00;;;;;;5074642;28;20032;-81
2021/06/09 08:21:31;;;;;;;8.25;4.80;;;615.10;2432.00;;;;;;5074461;28;20393;-82
2021/06/09 08:23:57;;;;;;;7.03;5.60;;;615.30;2380.80;;;;;;5074310;28;20024;-80
2021/06/09 08:26:24;;;;;;;8.90;4.38;;;615.10;2355.20;;;;;;5074665;28;20062;-80
2021/06/09 08:28:54;;;;;;;6.68;5.05;;;615.30;2355.20;;;;;;5072104;28;20058;-82
2021/06/09 08:31:26;;;;;;;9.00;4.70;;;640.00;2329.60;;;;;;5073659;28;20401;-83
2021/06/09 08:33:54;;;;;;;9.88;4.82;;;640.00;2329.60;;;;;;5071575;28;20440;-83
2021/06/09 08:36:21;;;;;;;10.85;4.28;;;640.20;2329.60;;;;;;5073237;28;20036;-81
2021/06/09 08:38:52;;;;;;;7.50;4.15;;;640.20;2278.40;;;;;;5074347;28;20029;-82
2021/06/09 08:41:21;;;;;;;10.83;5.10;;;640.20;2278.40;;;;;;5073893;28;20059;-81
2021/06/09 08:43:48;;;;;;;8.98;5.38;;;640.40;2278.40;;;;;;5081486;28;20261;-82
2021/06/09 08:46:15;;;;;;;13.10;6.70;;;640.40;2252.80;;;;;;5073575;28;20120;-83
2021/06/09 08:48:44;;;;;;;11.32;8.38;;;640.40;2252.80;;;;;;5073271;28;20029;-81
2021/06/09 08:51:12;;;;;;;10.63;5.55;;;640.80;2304.00;;;;;;5073287;28;20115;-82
2021/06/09 08:53:44;;;;;;;5.97;4.97;;;665.70;2252.80;;;;;;5073099;28;20034;-81
2021/06/09 08:56:10;;;;;;;7.10;5.18;;;665.90;2201.60;;;;;;5053605;28;20071;-84
2021/06/09 08:58:37;;;;;;;6.68;4.78;;;666.20;2252.80;;;;;;5066438;28;20028;-83
2021/06/09 09:01:06;;;;;;;8.98;5.00;;;666.30;2201.60;;;;;;5073361;28;20031;-82
2021/06/09 09:03:34;;;;;;;6.65;4.38;;;666.50;2150.40;;;;;;5074585;28;20028;-82
2021/06/09 09:06:00;;;;;;;9.75;5.82;;;691.20;2124.80;;;;;;5072990;28;20037;-81
2021/06/09 09:08:25;;;;;;;6.88;4.93;;;691.40;2099.20;;;;;;5073312;28;20039;-83
2021/06/09 09:10:51;;;;;;;16.17;6.75;;;691.40;2048.00;;;;;;5073171;28;20029;-81
2021/06/09 09:13:17;;;;;;;8.20;4.78;;;691.60;2124.80;;;;;;5072447;28;20048;-82
2021/06/09 09:15:43;;;;;;;11.38;5.03;;;691.80;2124.80;;;;;;5073107;28;20064;-83
2021/06/09 09:18:09;;;;;;;11.85;5.13;;;691.70;2073.60;;;;;;5073338;28;20124;-82
2021/06/09 09:20:43;;;;;;;7.35;4.60;;;691.50;2073.60;;;;;;5073202;28;20034;-84
2021/06/09 09:23:29;;;;;;;8.38;5.43;;;691.60;2048.00;;;;;;5073547;28;20036;-82
2021/06/09 09:25:58;;;;;;;6.32;4.28;;;691.60;2150.40;;;;;;5073097;28;20028;-79
2021/06/09 09:28:30;;;;;;;7.88;4.72;;;691.60;2176.00;;;;;;5072441;28;20029;-80
2021/06/09 09:31:24;;;;;;;;;;;691.30;2201.60;;;;;;5075545;28;20024;-80
2021/06/09 09:33:50;;;;;;;9.95;4.50;;;691.30;1996.80;;;;;;5060420;28;19905;-82
2021/06/09 09:36:26;;;;;;;6.75;3.83;;;691.90;2048.00;;;;;;5107181;28;20086;-81
2021/06/09 09:38:53;;;;;;;11.60;7.88;;;691.80;1945.60;;;;;;5072920;28;20103;-82
2021/06/09 09:41:20;;;;;;;9.07;6.03;;;692.10;1945.60;;;;;;5089152;28;20032;-82
2021/06/09 09:43:56;;;;;;;6.90;5.32;;;692.10;1920.00;;;;;;5053249;28;20021;-82
2021/06/09 09:46:39;;;;;;;9.88;6.88;;;692.00;1894.40;;;;;;5053477;28;20024;-82
2021/06/09 09:49:07;;;;;;;8.98;6.05;;;691.50;1894.40;;;;;;5056726;28;20039;-82
2021/06/09 09:51:47;;;;;;;13.48;8.85;;;691.40;1894.40;;;;;;5052958;28;20025;-80
2021/06/09 09:54:14;;;;;;;16.13;11.77;;;691.30;2048.00;;;;;;5054568;28;20107;-81
2021/06/09 09:56:41;;;;;;;11.02;6.80;;;666.40;2150.40;;;;;;5052397;28;20124;-81
2021/06/09 09:59:10;;;;;;;12.80;7.90;;;666.20;2124.80;;;;;;5053977;28;20065;-81
2021/06/09 10:01:43;;;;;;;13.52;6.22;;;666.00;2150.40;;;;;;5052744;28;20021;-79
2021/06/09 10:04:09;;;;;;;11.50;8.23;;;666.00;2201.60;;;;;;5052470;28;20059;-80
2021/06/09 10:06:38;;;;;;;15.85;8.50;;;666.00;2201.60;;;;;;5053963;28;20478;-82
2021/06/09 10:09:16;;;;;;;12.82;8.00;;;666.40;2176.00;;;;;;5063258;28;20028;-81
2021/06/09 10:11:48;;;;;;;15.35;12.48;;;666.20;2201.60;;;;;;5070677;28;20016;-81
2021/06/09 10:14:23;;;;;;;10.07;8.07;;;666.10;2252.80;;;;;;5063772;28;20048;-81
2021/06/09 10:17:01;;;;;;;27.77;21.52;;;666.00;2278.40;;;;;;5072586;28;20037;-79
2021/06/09 10:19:38;;;;;;;13.63;8.32;;;666.30;2252.80;;;;;;5071823;28;20070;-80
2021/06/09 10:22:09;;;;;;;7.82;5.63;;;691.60;2124.80;;;;;;5071499;28;20492;-79
2021/06/09 10:24:46;;;;;;;8.77;5.35;;;692.10;2022.40;;;;;;5070781;28;20024;-80
2021/06/09 10:27:13;;;;;;;10.27;6.30;;;717.10;1971.20;;;;;;5070189;28;20032;-80
2021/06/09 10:29:39;;;;;;;5.78;3.60;;;717.40;1894.40;;;;;;5071231;28;20516;-81
2021/06/09 10:32:08;;;;;;;5.85;3.53;;;717.70;1740.80;;;;;;5071061;28;20031;-80
2021/06/09 10:34:35;;;;;;;7.22;4.30;;;742.50;1740.80;;;;;;5072323;28;20021;-82
2021/06/09 10:37:04;;;;;;;5.93;3.42;;;742.70;1715.20;;;;;;5071576;28;20542;-80
2021/06/09 10:39:32;;;;;;;7.15;3.95;;;742.80;1638.40;;;;;;5070943;28;20151;-79
2021/06/09 10:42:04;;;;;;;9.25;7.45;;;743.00;1689.60;;;;;;5071226;28;20488;-83
2021/06/09 10:44:36;;;;;;;6.72;5.38;;;743.10;1638.40;;;;;;5067919;28;20107;-83
2021/06/09 10:47:02;;;;;;;;;;;768.10;1612.80;;;;;;5071189;28;20032;-81
2021/06/09 10:49:33;;;;;;;12.18;5.03;;;768.30;1561.60;;;;;;5071596;28;19905;-82
2021/06/09 10:52:03;;;;;;;8.57;3.95;;;743.30;1561.60;;;;;;5071356;28;20024;-82
2021/06/09 10:54:29;;;;;;;7.18;3.67;;;768.30;1561.60;;;;;;5071964;28;20043;-81
2021/06/09 10:56:56;;;;;;;9.45;4.38;;;768.40;1510.40;;;;;;5071436;28;20024;-80
2021/06/09 10:59:28;;;;;;;4.60;3.00;;;768.60;1484.80;;;;;;5071619;28;20057;-79
2021/06/09 11:02:04;;;;;;;4.60;3.03;;;768.60;1536.00;;;;;;5071380;28;20031;-82
2021/06/09 11:04:39;;;;;;;4.57;3.20;;;768.70;1459.20;;;;;;5071528;28;20127;-81
2021/06/09 11:07:24;;;;;;;6.35;3.60;;;793.60;1484.80;;;;;;5071246;28;20036;-81
2021/06/09 11:09:50;;;;;;;5.25;3.40;;;793.60;1510.40;;;;;;5071360;28;20052;-80
2021/06/09 11:12:19;;;;;;;4.38;2.90;;;793.70;1459.20;;;;;;5071521;28;20060;-82
2021/06/09 11:15:10;;;;;;;6.53;3.17;;;793.90;1433.60;;;;;;5069250;28;20139;-80
2021/06/09 11:17:49;;;;;;;5.43;2.72;;;793.70;1382.40;;;;;;5059100;28;20060;-79
2021/06/09 11:20:33;;;;;;;5.25;2.47;;;793.70;1382.40;;;;;;5066140;28;20033;-80
2021/06/09 11:23:05;;;;;;;6.45;3.13;;;794.10;1356.80;;;;;;5071233;28;20111;-82
2021/06/09 11:25:42;;;;;;;7.57;3.08;;;794.20;1433.60;;;;;;5071319;28;20036;-80
2021/06/09 11:28:26;;;;;;;7.03;4.50;;;794.30;1356.80;;;;;;5070379;28;20478;-81
2021/06/09 11:30:54;;;;;;;5.75;2.80;;;794.50;1356.80;;;;;;5071671;28;20052;-82
2021/06/09 11:33:53;;;;;;;6.45;4.60;;;794.50;1331.20;;;;;;5071349;28;20086;-81
2021/06/09 11:36:19;;;;;;;5.95;3.47;;;794.10;1382.40;;;;;;5059710;28;20029;-80
2021/06/09 11:38:46;;;;;;;8.95;3.28;;;794.30;1356.80;;;;;;5075040;28;20436;-79
2021/06/09 11:41:20;;;;;;;5.78;3.10;;;819.20;1408.00;;;;;;5075123;28;20075;-82
2021/06/09 11:43:49;;;;;;;5.35;3.38;;;819.30;1356.80;;;;;;5074145;28;20123;-81
2021/06/09 11:46:35;;;;;;;5.85;2.88;;;819.60;1382.40;;;;;;5074332;28;20029;-81
2021/06/09 11:49:11;;;;;;;4.57;2.53;;;819.80;1305.60;;;;;;5074497;28;20021;-82
2021/06/09 11:52:01;;;;;;;6.80;2.65;;;819.80;1305.60;;;;;;5074774;28;20031;-78
2021/06/09 11:54:32;;;;;;;4.22;3.00;;;819.80;1305.60;;;;;;5075081;28;20033;-83
2021/06/09 11:57:03;;;;;;;5.32;2.72;;;819.70;1305.60;;;;;;5075034;28;20428;-80
2021/06/09 11:59:34;;;;;;;5.78;2.83;;;819.70;1331.20;;;;;;5075606;28;20035;-83
2021/06/09 12:02:25;;;;;;;5.35;2.50;;;819.70;1305.60;;;;;;5075260;28;20068;-83
2021/06/09 12:04:56;;;;;;;7.07;3.13;;;819.70;1305.60;;;;;;5074257;28;20128;-84
2021/06/09 12:07:27;;;;;;;5.03;2.67;;;819.90;1305.60;;;;;;5109117;28;20527;-82
2021/06/09 12:09:59;;;;;;;5.05;2.92;;;819.90;1331.20;;;;;;5075013;28;20028;-80
2021/06/09 12:12:29;;;;;;;;;;;820.10;1305.60;;;;;;5075657;28;20025;-81
2021/06/09 12:15:00;;;;;;;5.05;3.03;;;844.80;1305.60;;;;;;5074770;28;19924;-81
2021/06/09 12:17:31;;;;;;;5.97;3.15;;;819.30;1356.80;;;;;;5074896;28;20028;-82
2021/06/09 12:20:17;;;;;;;5.38;2.60;;;794.00;1382.40;;;;;;5075161;28;20032;-81
2021/06/09 12:22:55;;;;;;;7.45;2.92;;;768.90;1356.80;;;;;;5076016;28;20020;-82
2021/06/09 12:25:31;;;;;;;6.15;3.90;;;768.40;1408.00;;;;;;5074744;28;20024;-83
2021/06/09 12:28:03;;;;;;;9.25;4.53;;;743.30;1484.80;;;;;;5074804;28;20035;-81